Etusivu
METAR-TAF:

METAR-TAF

Lentoasemat :

Waco, Texas, Yhdysvallat

Leveyspiiri: 31-37-02N, Pituuspiiri: 097-13-40W, korkeus merenpinnasta: 157 m

Tämänhetkinen sää

Tämä raportti tehtiin 39 minuuttia sitten, kello 12.51 UTC
Tuuli 7 kn etelästä/lounaasta
Lämpötila 26°C
Kosteus 79%
Ilmanpaine 1016 hPa
Näkyvyys: 16.1 km
selkeää

METAR: KACT 231251Z 21007KT 10SM CLR 26/22 A3001 RMK AO2 SLP153 T02560222

Aika: 08:30 (13:30 UTC)

Sääennuste

Tämä raportti tehtiin 2 tuntia ja 10 minuuttia sitten, kello 11.20 UTC
Ennuste voimassa 23. päivästä klo 12 UTC - 24. päivään klo 12 UTC
Tuuli 8 kn etelästä
Näkyvyys: 10 km
Muutamia pilviä 5000 ft:n korkeudessa

TAF: KACT 231120Z 2312/2412 19008KT P6SM FEW050

Säähavainnot ja -ennusteet yli 4000 lentoasemalta (METAR- ja TAF-raportit).

Käytössä olevat sääasemat on merkitty karttaan keltaisilla ja punaisilla pisteillä.

Aseta hiiri pisteen päälle nähdäksesi sääaseman nimen.

Klikkaa sitten nähdäksesi säähavainnot ja -ennusteet.

Kartan vaihtaminen: klikkaa mustalla rastilla varustettuja vihreitä pisteitä, niin voit zoomata sisään; viivalla varustettua vihreää pistettä, niin voit zoomata ulos tai vihreitä nuolia, niin pääset viereisille kartoille.


METAR-TAF: